createdAt,value
2018-07-16T00:00:22.122Z,81.60
2018-07-16T00:02:51.261Z,81.80
2018-07-16T00:05:20.048Z,81.90
2018-07-16T00:07:49.011Z,81.50
2018-07-16T00:10:17.461Z,81.60
2018-07-16T00:12:46.147Z,81.60
2018-07-16T00:15:14.638Z,81.30
2018-07-16T00:17:43.050Z,81.40
2018-07-16T00:20:11.560Z,81.30
2018-07-16T00:22:39.906Z,81.00
2018-07-16T00:25:08.343Z,80.80
2018-07-16T00:27:36.691Z,80.60
2018-07-16T00:30:05.352Z,80.70
2018-07-16T00:32:33.766Z,80.60
2018-07-16T00:35:02.749Z,80.70
2018-07-16T00:37:31.159Z,80.80
2018-07-16T00:39:59.662Z,80.00
2018-07-16T00:42:27.969Z,79.40
2018-07-16T00:44:56.418Z,79.80
2018-07-16T00:47:24.830Z,80.20
2018-07-16T00:49:53.214Z,80.10
2018-07-16T00:52:21.655Z,80.10
2018-07-16T00:54:50.889Z,80.80
2018-07-16T00:57:20.106Z,81.10
2018-07-16T00:59:48.592Z,81.50
2018-07-16T01:02:17.002Z,81.40
2018-07-16T01:04:45.466Z,81.30
2018-07-16T01:07:13.903Z,81.10
2018-07-16T01:09:42.304Z,81.30
2018-07-16T01:12:10.671Z,82.10
2018-07-16T01:14:39.156Z,82.20
2018-07-16T01:17:07.533Z,82.20
2018-07-16T01:19:36.018Z,82.40
2018-07-16T01:22:04.394Z,82.80
2018-07-16T01:24:33.196Z,83.30
2018-07-16T01:27:01.583Z,83.50
2018-07-16T01:29:30.023Z,83.40
2018-07-16T01:31:58.376Z,83.30
2018-07-16T01:34:26.757Z,83.40
2018-07-16T01:36:55.210Z,84.40
2018-07-16T01:39:23.669Z,84.20
2018-07-16T01:41:51.978Z,84.40
2018-07-16T01:44:21.374Z,83.90
2018-07-16T01:46:50.091Z,83.50
2018-07-16T01:49:18.439Z,84.40
2018-07-16T01:51:46.771Z,84.00
2018-07-16T01:54:15.119Z,84.10
2018-07-16T01:56:43.483Z,83.80
2018-07-16T01:59:11.937Z,83.90
2018-07-16T02:01:40.376Z,84.10
2018-07-16T02:04:08.905Z,84.10
2018-07-16T02:06:37.663Z,84.30
2018-07-16T02:09:06.105Z,84.90
2018-07-16T02:11:34.502Z,85.20
2018-07-16T02:14:03.397Z,85.30
2018-07-16T02:16:31.894Z,85.50
2018-07-16T02:19:00.357Z,87.20
2018-07-16T02:21:28.797Z,86.70
2018-07-16T02:23:57.142Z,86.70
2018-07-16T02:26:25.628Z,86.60
2018-07-16T02:28:53.989Z,86.20
2018-07-16T02:31:22.583Z,85.90
2018-07-16T02:33:51.050Z,85.60
2018-07-16T02:36:19.527Z,85.70
2018-07-16T02:38:47.945Z,85.40
2018-07-16T02:41:16.422Z,85.20
2018-07-16T02:43:44.897Z,85.40
2018-07-16T02:46:13.559Z,85.30
2018-07-16T02:48:41.994Z,85.50
2018-07-16T02:51:10.631Z,85.60
2018-07-16T02:53:39.004Z,85.40
2018-07-16T02:56:07.843Z,85.70
2018-07-16T02:58:36.339Z,85.80
2018-07-16T03:01:05.756Z,85.50
2018-07-16T03:03:34.081Z,85.50
2018-07-16T03:06:02.616Z,85.50
2018-07-16T03:08:30.995Z,84.80
2018-07-16T03:11:00.841Z,84.90
2018-07-16T03:13:29.234Z,85.00
2018-07-16T03:15:57.756Z,85.10
2018-07-16T03:18:26.090Z,85.40
2018-07-16T03:20:55.543Z,84.70
2018-07-16T03:23:24.004Z,84.40
2018-07-16T03:25:52.594Z,84.30
2018-07-16T03:28:21.103Z,84.40
2018-07-16T03:30:49.570Z,83.90
2018-07-16T03:33:17.903Z,84.50
2018-07-16T03:35:46.342Z,84.80
2018-07-16T03:38:14.727Z,84.70
2018-07-16T03:40:44.291Z,84.70
2018-07-16T03:43:12.762Z,85.00
2018-07-16T03:45:41.291Z,84.70
2018-07-16T03:48:09.859Z,84.60
2018-07-16T03:50:39.541Z,84.90
2018-07-16T03:53:07.998Z,85.10
2018-07-16T03:55:36.450Z,84.90
2018-07-16T03:58:04.965Z,84.70
2018-07-16T04:00:34.488Z,84.30
2018-07-16T04:03:03.634Z,84.40
2018-07-16T04:05:32.132Z,84.40
2018-07-16T04:08:00.500Z,84.90
2018-07-16T04:10:30.021Z,84.90
2018-07-16T04:12:58.479Z,85.60
2018-07-16T04:15:26.997Z,85.30
2018-07-16T05:39:53.405Z,86.10
2018-07-16T05:42:22.154Z,86.60
2018-07-16T05:44:50.956Z,86.60
2018-07-16T05:47:19.380Z,87.00
2018-07-16T05:49:47.834Z,87.00
2018-07-16T05:52:16.314Z,86.80
2018-07-16T05:54:44.799Z,87.50
2018-07-16T05:57:13.120Z,86.90
2018-07-16T05:59:41.635Z,86.70
2018-07-16T06:02:10.112Z,86.50
2018-07-16T06:04:38.852Z,86.20
2018-07-16T06:07:07.297Z,85.50
2018-07-16T06:09:35.763Z,85.50
2018-07-16T06:12:04.122Z,86.60
2018-07-16T06:14:32.655Z,86.20
2018-07-16T06:17:01.236Z,86.00
2018-07-16T07:05:22.681Z,85.30
2018-07-16T07:07:51.847Z,85.80
2018-07-16T07:12:48.623Z,85.40
2018-07-16T07:15:16.994Z,85.00
2018-07-16T07:17:45.421Z,85.50
2018-07-16T07:20:13.862Z,85.50
2018-07-16T07:22:42.673Z,85.20
2018-07-16T07:25:11.110Z,84.40
2018-07-16T07:27:39.523Z,83.90
2018-07-16T07:30:07.968Z,84.00
2018-07-16T07:32:36.721Z,84.20
2018-07-16T07:35:05.408Z,84.70
2018-07-16T07:37:34.102Z,84.90
2018-07-16T07:40:02.625Z,84.50
2018-07-16T07:42:31.401Z,85.00
2018-07-16T07:44:59.963Z,84.50
2018-07-16T07:47:28.322Z,84.90
2018-07-16T07:49:57.178Z,84.60
2018-07-16T07:52:25.965Z,84.40
2018-07-16T07:54:54.734Z,85.00
2018-07-16T07:57:23.014Z,84.40
2018-07-16T07:59:52.160Z,84.40
2018-07-16T08:02:21.214Z,84.40
2018-07-16T08:04:50.348Z,84.40
2018-07-16T08:07:19.376Z,84.40
2018-07-16T08:09:47.845Z,84.20
2018-07-16T08:12:16.855Z,84.70
2018-07-16T08:14:45.352Z,84.90
2018-07-16T08:17:14.010Z,85.10
2018-07-16T08:19:42.650Z,84.60
2018-07-16T08:22:11.610Z,83.90
2018-07-16T08:24:40.528Z,84.30
2018-07-16T08:27:09.576Z,84.30
2018-07-16T08:29:38.381Z,84.40
2018-07-16T08:32:07.838Z,84.60
2018-07-16T08:34:36.538Z,84.30
2018-07-16T08:37:05.170Z,84.10
2018-07-16T08:39:33.803Z,84.20
2018-07-16T08:42:02.778Z,83.90
2018-07-16T08:44:31.500Z,83.90
2018-07-16T08:47:00.083Z,84.10
2018-07-16T08:49:28.513Z,83.40
2018-07-16T08:51:56.847Z,83.20
2018-07-16T08:54:25.251Z,83.50
2018-07-16T08:56:53.632Z,83.60
2018-07-16T08:59:22.873Z,83.70
2018-07-16T09:01:52.394Z,83.80
2018-07-16T09:04:21.613Z,83.70
2018-07-16T09:06:50.805Z,84.00
2018-07-16T09:09:19.542Z,84.50
2018-07-16T09:11:48.021Z,84.30
2018-07-16T09:14:16.679Z,84.00
2018-07-16T09:19:13.439Z,83.90
2018-07-16T09:21:41.990Z,83.90
2018-07-16T09:24:10.401Z,84.30
2018-07-16T09:26:38.765Z,84.30
2018-07-16T09:29:07.390Z,83.30
2018-07-16T09:31:36.143Z,82.30
2018-07-16T09:34:05.008Z,82.10
2018-07-16T09:36:33.711Z,81.80
2018-07-16T09:39:02.248Z,83.10
2018-07-16T09:41:30.885Z,83.30
2018-07-16T09:43:59.456Z,82.60
2018-07-16T09:46:27.879Z,82.10
2018-07-16T09:48:56.335Z,82.00
2018-07-16T09:51:24.820Z,81.40
2018-07-16T09:53:53.231Z,81.30
2018-07-16T09:56:22.010Z,81.10
2018-07-16T09:58:50.858Z,82.60
2018-07-16T10:01:24.580Z,81.40
2018-07-16T10:06:22.317Z,80.70
2018-07-16T10:11:19.587Z,79.80
2018-07-16T10:13:47.967Z,80.00
2018-07-16T10:16:16.416Z,79.70
2018-07-16T10:18:44.774Z,81.20
2018-07-16T10:21:13.599Z,81.20
2018-07-16T10:23:41.972Z,79.20
2018-07-16T10:26:10.323Z,79.30
2018-07-16T10:28:38.764Z,79.80
2018-07-16T10:31:08.612Z,79.40
2018-07-16T10:33:37.063Z,81.90
2018-07-16T10:36:05.695Z,81.40
2018-07-16T10:38:34.072Z,81.20
2018-07-16T10:41:03.924Z,80.20
2018-07-16T10:43:32.293Z,79.90
2018-07-16T10:46:00.807Z,79.90
2018-07-16T10:48:29.224Z,81.10
2018-07-16T10:50:58.677Z,81.20
2018-07-16T10:53:27.087Z,81.90
2018-07-16T10:55:55.572Z,82.10
2018-07-16T10:58:23.915Z,82.40
2018-07-16T11:00:52.386Z,83.40
2018-07-16T11:03:20.766Z,82.90
2018-07-16T11:05:49.617Z,82.30
2018-07-16T11:08:18.014Z,82.60
2018-07-16T11:10:46.490Z,83.70
2018-07-16T11:13:14.830Z,85.40
2018-07-16T11:15:43.262Z,88.00
2018-07-16T11:18:11.619Z,87.80
2018-07-16T11:20:41.023Z,90.40
2018-07-16T11:23:09.433Z,90.40
2018-07-16T11:25:37.883Z,90.90
2018-07-16T11:28:06.349Z,91.00
2018-07-16T11:30:36.199Z,90.00
2018-07-16T11:33:04.767Z,88.90
2018-07-16T11:35:33.287Z,88.10
2018-07-16T11:38:01.788Z,89.10
2018-07-16T11:40:31.234Z,88.30
2018-07-16T11:42:59.693Z,86.90
2018-07-16T11:45:28.223Z,86.10
2018-07-16T11:47:56.814Z,87.00
2018-07-16T11:50:25.278Z,85.50
2018-07-16T11:52:53.683Z,85.60
2018-07-16T11:55:22.150Z,88.00
2018-07-16T11:57:51.338Z,90.10
2018-07-16T12:00:20.667Z,91.50
2018-07-16T12:02:49.166Z,92.60
2018-07-16T12:05:17.763Z,88.00
2018-07-16T12:07:46.291Z,86.60
2018-07-16T12:10:14.769Z,85.60
2018-07-16T12:12:43.773Z,85.50
2018-07-16T12:15:12.426Z,85.70
2018-07-16T12:17:40.850Z,85.50
2018-07-16T12:20:09.418Z,85.80
2018-07-16T12:22:37.928Z,85.60
2018-07-16T12:25:06.441Z,87.30
2018-07-16T12:27:34.960Z,86.10
2018-07-16T12:30:03.640Z,85.40
2018-07-16T12:32:32.147Z,85.00
2018-07-16T12:35:00.688Z,85.10
2018-07-16T12:37:29.362Z,85.10
2018-07-16T12:39:57.857Z,85.10
2018-07-16T12:42:26.228Z,86.20
2018-07-16T12:44:54.670Z,85.80
2018-07-16T12:47:23.050Z,87.40
2018-07-16T12:49:51.538Z,85.00
2018-07-16T12:52:20.698Z,85.20
2018-07-16T12:54:49.218Z,84.00
2018-07-16T12:57:17.762Z,83.90
2018-07-16T12:59:46.341Z,84.90
2018-07-16T13:04:42.923Z,83.70
2018-07-16T13:07:11.389Z,82.80
2018-07-16T13:09:39.907Z,82.60
2018-07-16T13:12:08.308Z,83.30
2018-07-16T13:14:36.638Z,83.40
2018-07-16T13:17:05.240Z,83.30
2018-07-16T13:19:33.646Z,82.60
2018-07-16T13:22:02.122Z,82.10
2018-07-16T13:24:30.525Z,82.90
2018-07-16T13:26:59.519Z,81.70
2018-07-16T13:29:27.995Z,81.30
2018-07-16T13:31:56.422Z,79.30
2018-07-16T13:34:24.891Z,78.10
2018-07-16T13:36:53.326Z,77.60
2018-07-16T13:39:22.241Z,77.40
2018-07-16T13:41:51.400Z,77.40
2018-07-16T13:44:20.619Z,77.00
2018-07-16T13:46:49.098Z,75.10
2018-07-16T13:49:17.731Z,73.90
2018-07-16T13:51:46.082Z,74.40
2018-07-16T13:54:14.627Z,74.40
2018-07-16T13:56:43.055Z,74.30
2018-07-16T13:59:11.537Z,74.40
2018-07-16T14:01:40.056Z,74.90
2018-07-16T14:04:08.684Z,75.60
2018-07-16T14:06:37.014Z,75.60
2018-07-16T14:09:07.408Z,75.80
2018-07-16T14:11:35.875Z,76.10
2018-07-16T14:14:04.858Z,75.40
2018-07-16T14:16:33.259Z,75.20
2018-07-16T14:19:01.640Z,75.30
2018-07-16T14:21:30.093Z,75.50
2018-07-16T14:23:58.503Z,76.40
2018-07-16T14:26:27.033Z,76.50
2018-07-16T14:28:55.450Z,76.70
2018-07-16T14:31:23.875Z,76.70
2018-07-16T14:33:53.184Z,76.20
2018-07-16T14:36:21.731Z,75.20
2018-07-16T14:38:50.607Z,74.90
2018-07-16T14:41:19.052Z,74.10
2018-07-16T14:43:47.528Z,74.00
2018-07-16T14:46:15.989Z,74.30
2018-07-16T14:48:44.492Z,73.50
2018-07-16T14:51:12.921Z,72.20
2018-07-16T14:53:41.686Z,70.90
2018-07-16T14:56:10.089Z,70.20
2018-07-16T14:58:38.516Z,67.90
2018-07-16T15:01:07.222Z,67.80
2018-07-16T15:03:35.581Z,67.50
2018-07-16T15:06:04.033Z,68.70
2018-07-16T15:08:32.524Z,69.60
2018-07-16T15:11:01.078Z,70.40
2018-07-16T15:13:29.467Z,70.10
2018-07-16T15:15:57.983Z,71.90
2018-07-16T15:18:26.411Z,70.00
2018-07-16T15:20:55.128Z,69.70
2018-07-16T15:23:23.665Z,73.40
2018-07-16T15:25:52.915Z,68.30
2018-07-16T15:28:22.512Z,69.10
2018-07-16T15:30:50.946Z,70.30
2018-07-16T15:33:19.330Z,67.90
2018-07-16T15:35:47.670Z,67.10
2018-07-16T15:38:16.143Z,68.60
2018-07-16T15:40:44.630Z,66.40
2018-07-16T15:43:13.123Z,65.60
2018-07-16T15:45:41.509Z,68.40
2018-07-16T15:48:10.103Z,67.30
2018-07-16T15:50:38.631Z,68.40
2018-07-16T15:53:07.529Z,68.30
2018-07-16T15:55:35.906Z,69.30
2018-07-16T15:58:04.471Z,70.40
2018-07-16T16:00:32.822Z,70.70
2018-07-16T16:03:01.389Z,70.60
2018-07-16T16:05:29.765Z,71.70
2018-07-16T16:07:58.325Z,71.70
2018-07-16T16:10:27.082Z,70.60
2018-07-16T16:12:55.791Z,68.30
2018-07-16T16:15:24.462Z,69.30
2018-07-16T16:17:52.913Z,71.80
2018-07-16T16:20:21.949Z,72.30
2018-07-16T16:22:51.027Z,70.50
2018-07-16T16:25:19.751Z,70.50
2018-07-16T16:27:48.294Z,71.40
2018-07-16T16:30:16.760Z,71.80
2018-07-16T17:54:43.687Z,70.30
2018-07-16T17:57:13.798Z,74.50
2018-07-16T17:59:42.253Z,74.90
2018-07-16T18:02:11.075Z,75.20
2018-07-16T18:04:39.457Z,74.10
2018-07-16T18:07:07.878Z,73.00
2018-07-16T18:09:36.272Z,73.10
2018-07-16T18:12:04.811Z,73.00
2018-07-16T18:14:33.215Z,72.70
2018-07-16T18:17:01.608Z,72.70
2018-07-16T18:19:30.059Z,72.70
2018-07-16T18:21:59.563Z,73.80
2018-07-16T18:24:28.016Z,74.40
2018-07-16T18:26:56.532Z,73.50
2018-07-16T18:29:24.989Z,73.30
2018-07-16T18:31:54.061Z,73.40
2018-07-16T18:34:23.435Z,73.90
2018-07-16T18:36:52.461Z,74.40
2018-07-16T18:39:21.662Z,74.40
2018-07-16T18:41:50.716Z,74.10
2018-07-16T18:44:19.125Z,73.80
2018-07-16T18:46:47.623Z,74.10
2018-07-16T18:49:15.950Z,74.10
2018-07-16T18:51:44.683Z,74.50
2018-07-16T18:54:13.508Z,73.70
2018-07-16T18:56:42.178Z,73.50
2018-07-16T18:59:10.946Z,73.50
2018-07-16T19:01:39.771Z,73.70
2018-07-16T19:06:37.312Z,75.30
2018-07-16T19:09:06.976Z,75.30
2018-07-16T19:11:35.367Z,74.40
2018-07-16T19:14:03.758Z,73.80
2018-07-16T19:16:32.246Z,73.60
2018-07-16T19:19:00.575Z,74.30
2018-07-16T19:21:29.037Z,74.40
2018-07-16T19:23:57.733Z,73.60
2018-07-16T19:26:26.309Z,73.30
2018-07-16T19:28:54.703Z,73.50
2018-07-16T19:31:23.235Z,73.70
2018-07-16T19:33:52.526Z,74.40
2018-07-16T19:36:21.641Z,74.40
2018-07-16T19:38:50.862Z,74.50
2018-07-16T19:41:19.421Z,74.60
2018-07-16T19:43:47.838Z,74.30
2018-07-16T19:46:16.358Z,74.40
2018-07-16T19:48:44.691Z,74.30
2018-07-16T19:51:14.771Z,75.30
2018-07-16T19:53:43.183Z,76.20
2018-07-16T19:56:11.710Z,76.70
2018-07-16T19:58:40.181Z,76.90
2018-07-16T20:01:09.329Z,76.40
2018-07-16T20:03:37.899Z,75.70
2018-07-16T20:06:06.449Z,76.30
2018-07-16T20:08:34.833Z,76.50
2018-07-16T20:11:03.252Z,76.50
2018-07-16T20:13:31.668Z,76.70
2018-07-16T20:16:00.024Z,77.30
2018-07-16T20:18:28.519Z,78.20
2018-07-16T20:20:59.228Z,77.90
2018-07-16T20:23:27.746Z,77.70
2018-07-16T20:25:57.337Z,77.70
2018-07-16T20:28:25.963Z,77.40
2018-07-16T20:30:54.938Z,78.10
2018-07-16T20:33:23.738Z,77.80
2018-07-16T20:35:52.527Z,77.10
2018-07-16T20:38:21.571Z,77.20
2018-07-16T20:40:50.376Z,77.10
2018-07-16T20:43:18.803Z,77.50
2018-07-16T20:45:47.257Z,77.20
2018-07-16T20:48:15.590Z,77.20
2018-07-16T20:50:44.109Z,77.30
2018-07-16T20:53:12.871Z,77.60
2018-07-16T20:55:41.359Z,77.80
2018-07-16T20:58:09.767Z,77.60
2018-07-16T21:00:38.187Z,77.60
2018-07-16T21:03:06.744Z,78.30
2018-07-16T21:05:35.154Z,77.30
2018-07-16T21:08:03.595Z,77.30
2018-07-16T21:10:32.010Z,77.30
2018-07-16T21:13:00.318Z,77.70
2018-07-16T21:15:28.799Z,76.80
2018-07-16T21:17:57.245Z,77.00
2018-07-16T21:20:25.894Z,76.70
2018-07-16T21:22:54.321Z,76.70
2018-07-16T21:25:23.230Z,76.30
2018-07-16T21:27:52.358Z,76.50
2018-07-16T21:30:21.717Z,76.80
2018-07-16T21:32:50.486Z,76.60
2018-07-16T21:35:19.259Z,77.30
2018-07-16T21:37:47.629Z,77.10
2018-07-16T21:40:16.201Z,77.10
2018-07-16T21:42:45.154Z,77.40
2018-07-16T21:45:13.953Z,77.40
2018-07-16T21:47:42.720Z,77.50
2018-07-16T21:50:11.106Z,77.80
2018-07-16T21:52:39.516Z,77.30
2018-07-16T21:55:08.023Z,77.30
2018-07-16T21:57:36.475Z,77.90
2018-07-16T22:00:07.268Z,78.00
2018-07-16T22:02:35.598Z,77.30
2018-07-16T22:05:04.119Z,77.10
2018-07-16T22:07:32.468Z,77.40
2018-07-16T22:10:00.976Z,77.90
2018-07-16T22:12:29.381Z,77.40
2018-07-16T22:14:57.814Z,77.60
2018-07-16T22:17:26.223Z,77.90
2018-07-16T22:19:54.579Z,77.40
2018-07-16T22:22:23.084Z,77.80
2018-07-16T22:24:52.181Z,77.90
2018-07-16T22:27:21.056Z,78.10
2018-07-16T22:29:49.521Z,78.50
2018-07-16T22:32:17.930Z,78.60
2018-07-16T22:34:46.299Z,78.40
2018-07-16T22:37:14.724Z,78.00
2018-07-16T22:39:43.123Z,77.80
2018-07-16T22:42:11.529Z,77.80
2018-07-16T22:44:40.147Z,78.10
2018-07-16T22:47:08.539Z,78.20
2018-07-16T22:49:37.021Z,78.10
2018-07-16T22:52:05.446Z,78.30
2018-07-16T22:54:33.838Z,78.10
2018-07-16T22:57:02.627Z,78.90
2018-07-16T22:59:31.084Z,79.60
2018-07-16T23:01:59.678Z,79.60
2018-07-16T23:04:28.104Z,79.50
2018-07-16T23:06:56.517Z,79.60
2018-07-16T23:09:25.006Z,79.80
2018-07-16T23:11:53.411Z,79.60
2018-07-16T23:14:22.564Z,79.30
2018-07-16T23:16:50.968Z,79.70
2018-07-16T23:19:19.375Z,80.30
2018-07-16T23:21:47.693Z,80.00
2018-07-16T23:24:16.705Z,80.00
2018-07-16T23:26:45.184Z,80.00
2018-07-16T23:29:13.692Z,80.30
2018-07-16T23:31:42.221Z,80.80
2018-07-16T23:34:10.940Z,80.90
2018-07-16T23:36:39.464Z,81.10
2018-07-16T23:39:09.955Z,81.10
2018-07-16T23:41:38.413Z,81.10
2018-07-16T23:44:07.281Z,80.70
2018-07-16T23:46:35.782Z,80.40
2018-07-16T23:49:04.265Z,80.10
2018-07-16T23:51:32.921Z,80.50
2018-07-16T23:54:01.481Z,80.40
2018-07-16T23:56:29.973Z,80.10
2018-07-16T23:58:58.380Z,80.40
